sensor_id;sensor_type;location;lat;lon;timestamp;P1;durP1;ratioP1;P2;durP2;ratioP2
2760;SDS011;15420;48.636;9.798;2022-08-19T00:01:41;14.13;;;12.63;;
2760;SDS011;15420;48.636;9.798;2022-08-19T00:04:09;14.10;;;12.70;;
2760;SDS011;15420;48.636;9.798;2022-08-19T00:06:41;14.43;;;13.00;;
2760;SDS011;15420;48.636;9.798;2022-08-19T00:09:10;14.90;;;13.40;;
2760;SDS011;15420;48.636;9.798;2022-08-19T00:11:40;15.77;;;13.77;;
2760;SDS011;15420;48.636;9.798;2022-08-19T00:14:11;16.63;;;14.90;;
2760;SDS011;15420;48.636;9.798;2022-08-19T00:16:40;15.73;;;13.87;;
2760;SDS011;15420;48.636;9.798;2022-08-19T00:19:08;17.27;;;15.47;;
2760;SDS011;15420;48.636;9.798;2022-08-19T00:21:35;17.23;;;15.00;;
2760;SDS011;15420;48.636;9.798;2022-08-19T00:24:04;17.20;;;15.20;;
2760;SDS011;15420;48.636;9.798;2022-08-19T00:26:32;15.73;;;14.03;;
2760;SDS011;15420;48.636;9.798;2022-08-19T00:28:59;18.23;;;16.23;;
2760;SDS011;15420;48.636;9.798;2022-08-19T00:31:26;17.57;;;15.10;;
2760;SDS011;15420;48.636;9.798;2022-08-19T00:33:56;18.53;;;16.03;;
2760;SDS011;15420;48.636;9.798;2022-08-19T00:36:22;16.70;;;15.00;;
2760;SDS011;15420;48.636;9.798;2022-08-19T00:38:53;15.50;;;13.57;;
2760;SDS011;15420;48.636;9.798;2022-08-19T00:41:20;17.73;;;15.60;;
2760;SDS011;15420;48.636;9.798;2022-08-19T00:44:24;17.30;;;15.20;;
2760;SDS011;15420;48.636;9.798;2022-08-19T00:46:48;21.43;;;15.70;;
2760;SDS011;15420;48.636;9.798;2022-08-19T00:51:58;18.00;;;15.27;;
2760;SDS011;15420;48.636;9.798;2022-08-19T00:54:54;19.77;;;16.23;;
2760;SDS011;15420;48.636;9.798;2022-08-19T00:57:26;17.27;;;15.47;;
2760;SDS011;15420;48.636;9.798;2022-08-19T01:00:03;18.50;;;16.07;;
2760;SDS011;15420;48.636;9.798;2022-08-19T01:02:37;18.90;;;16.40;;
2760;SDS011;15420;48.636;9.798;2022-08-19T01:05:09;16.17;;;14.50;;
2760;SDS011;15420;48.636;9.798;2022-08-19T01:07:46;18.53;;;14.87;;
2760;SDS011;15420;48.636;9.798;2022-08-19T01:10:14;18.30;;;15.97;;
2760;SDS011;15420;48.636;9.798;2022-08-19T01:12:45;18.03;;;16.13;;
2760;SDS011;15420;48.636;9.798;2022-08-19T01:15:14;18.70;;;15.77;;
2760;SDS011;15420;48.636;9.798;2022-08-19T01:17:44;16.57;;;14.73;;
2760;SDS011;15420;48.636;9.798;2022-08-19T01:20:14;18.73;;;15.27;;
2760;SDS011;15420;48.636;9.798;2022-08-19T01:22:46;17.50;;;14.97;;
2760;SDS011;15420;48.636;9.798;2022-08-19T01:25:16;19.10;;;14.83;;
2760;SDS011;15420;48.636;9.798;2022-08-19T01:27:45;19.47;;;16.07;;
2760;SDS011;15420;48.636;9.798;2022-08-19T01:30:16;19.40;;;16.90;;
2760;SDS011;15420;48.636;9.798;2022-08-19T01:32:49;20.23;;;17.00;;
2760;SDS011;15420;48.636;9.798;2022-08-19T01:35:19;19.33;;;16.23;;
2760;SDS011;15420;48.636;9.798;2022-08-19T01:40:15;18.07;;;15.97;;
2760;SDS011;15420;48.636;9.798;2022-08-19T01:42:45;17.30;;;15.20;;
2760;SDS011;15420;48.636;9.798;2022-08-19T01:45:16;19.60;;;16.20;;
2760;SDS011;15420;48.636;9.798;2022-08-19T01:47:43;18.03;;;16.00;;
2760;SDS011;15420;48.636;9.798;2022-08-19T01:50:10;18.40;;;15.00;;
2760;SDS011;15420;48.636;9.798;2022-08-19T01:52:40;17.73;;;15.20;;
2760;SDS011;15420;48.636;9.798;2022-08-19T01:55:08;16.93;;;15.13;;
2760;SDS011;15420;48.636;9.798;2022-08-19T01:57:39;18.37;;;15.50;;
2760;SDS011;15420;48.636;9.798;2022-08-19T02:00:13;20.07;;;15.70;;
2760;SDS011;15420;48.636;9.798;2022-08-19T02:02:44;17.60;;;15.00;;
2760;SDS011;15420;48.636;9.798;2022-08-19T02:05:12;16.77;;;14.33;;
2760;SDS011;15420;48.636;9.798;2022-08-19T02:07:43;16.20;;;13.77;;
2760;SDS011;15420;48.636;9.798;2022-08-19T02:10:16;16.63;;;14.80;;
2760;SDS011;15420;48.636;9.798;2022-08-19T02:12:46;21.03;;;16.13;;
2760;SDS011;15420;48.636;9.798;2022-08-19T02:15:14;17.67;;;14.97;;
2760;SDS011;15420;48.636;9.798;2022-08-19T02:17:41;19.90;;;15.80;;
2760;SDS011;15420;48.636;9.798;2022-08-19T02:20:09;23.13;;;16.20;;
2760;SDS011;15420;48.636;9.798;2022-08-19T02:22:40;19.37;;;16.33;;
2760;SDS011;15420;48.636;9.798;2022-08-19T02:25:08;19.13;;;15.50;;
2760;SDS011;15420;48.636;9.798;2022-08-19T02:27:35;18.87;;;15.23;;
2760;SDS011;15420;48.636;9.798;2022-08-19T02:30:03;20.40;;;15.90;;
2760;SDS011;15420;48.636;9.798;2022-08-19T02:32:30;17.97;;;14.67;;
2760;SDS011;15420;48.636;9.798;2022-08-19T02:34:57;20.60;;;16.40;;
2760;SDS011;15420;48.636;9.798;2022-08-19T02:37:23;20.23;;;16.63;;
2760;SDS011;15420;48.636;9.798;2022-08-19T02:40:08;19.03;;;15.60;;
2760;SDS011;15420;48.636;9.798;2022-08-19T02:42:35;19.00;;;15.30;;
2760;SDS011;15420;48.636;9.798;2022-08-19T02:45:05;22.40;;;16.60;;
2760;SDS011;15420;48.636;9.798;2022-08-19T02:47:34;20.03;;;16.40;;
2760;SDS011;15420;48.636;9.798;2022-08-19T02:50:06;21.10;;;16.57;;
2760;SDS011;15420;48.636;9.798;2022-08-19T02:52:35;20.97;;;16.37;;
2760;SDS011;15420;48.636;9.798;2022-08-19T02:55:02;21.37;;;16.83;;
2760;SDS011;15420;48.636;9.798;2022-08-19T03:00:19;18.03;;;15.10;;
2760;SDS011;15420;48.636;9.798;2022-08-19T03:02:48;16.87;;;14.67;;
2760;SDS011;15420;48.636;9.798;2022-08-19T03:05:19;19.53;;;15.73;;
2760;SDS011;15420;48.636;9.798;2022-08-19T03:07:48;18.80;;;15.10;;
2760;SDS011;15420;48.636;9.798;2022-08-19T03:10:14;19.10;;;14.70;;
2760;SDS011;15420;48.636;9.798;2022-08-19T03:12:42;18.93;;;15.20;;
2760;SDS011;15420;48.636;9.798;2022-08-19T03:15:11;19.73;;;15.80;;
2760;SDS011;15420;48.636;9.798;2022-08-19T03:17:37;22.57;;;17.00;;
2760;SDS011;15420;48.636;9.798;2022-08-19T03:20:08;19.33;;;15.57;;
2760;SDS011;15420;48.636;9.798;2022-08-19T03:22:34;20.40;;;16.60;;
2760;SDS011;15420;48.636;9.798;2022-08-19T03:25:03;17.93;;;15.20;;
2760;SDS011;15420;48.636;9.798;2022-08-19T03:27:32;21.83;;;16.10;;
2760;SDS011;15420;48.636;9.798;2022-08-19T03:30:00;19.57;;;15.80;;
2760;SDS011;15420;48.636;9.798;2022-08-19T03:32:27;22.70;;;16.40;;
2760;SDS011;15420;48.636;9.798;2022-08-19T03:34:55;22.03;;;16.80;;
2760;SDS011;15420;48.636;9.798;2022-08-19T03:37:22;21.10;;;16.13;;
2760;SDS011;15420;48.636;9.798;2022-08-19T03:39:48;20.13;;;17.13;;
2760;SDS011;15420;48.636;9.798;2022-08-19T03:42:14;21.10;;;15.93;;
2760;SDS011;15420;48.636;9.798;2022-08-19T03:44:42;21.03;;;16.93;;
2760;SDS011;15420;48.636;9.798;2022-08-19T03:47:09;21.53;;;16.20;;
2760;SDS011;15420;48.636;9.798;2022-08-19T03:49:41;24.53;;;17.13;;
2760;SDS011;15420;48.636;9.798;2022-08-19T03:52:07;19.57;;;16.00;;
2760;SDS011;15420;48.636;9.798;2022-08-19T03:54:33;20.57;;;16.40;;
2760;SDS011;15420;48.636;9.798;2022-08-19T03:57:00;21.90;;;16.50;;
2760;SDS011;15420;48.636;9.798;2022-08-19T03:59:30;21.63;;;16.63;;
2760;SDS011;15420;48.636;9.798;2022-08-19T04:02:01;24.50;;;18.10;;
2760;SDS011;15420;48.636;9.798;2022-08-19T04:04:33;21.93;;;17.13;;
2760;SDS011;15420;48.636;9.798;2022-08-19T04:07:03;26.10;;;18.00;;
2760;SDS011;15420;48.636;9.798;2022-08-19T04:09:30;25.70;;;18.20;;
2760;SDS011;15420;48.636;9.798;2022-08-19T04:11:58;24.60;;;19.10;;
2760;SDS011;15420;48.636;9.798;2022-08-19T04:14:27;24.80;;;18.47;;
2760;SDS011;15420;48.636;9.798;2022-08-19T04:16:57;23.47;;;18.90;;
2760;SDS011;15420;48.636;9.798;2022-08-19T04:19:25;23.63;;;18.73;;
2760;SDS011;15420;48.636;9.798;2022-08-19T04:21:52;24.77;;;18.83;;
2760;SDS011;15420;48.636;9.798;2022-08-19T04:24:21;25.80;;;19.53;;
2760;SDS011;15420;48.636;9.798;2022-08-19T04:26:50;24.43;;;18.20;;
2760;SDS011;15420;48.636;9.798;2022-08-19T04:29:22;25.60;;;19.17;;
2760;SDS011;15420;48.636;9.798;2022-08-19T04:31:52;28.90;;;18.43;;
2760;SDS011;15420;48.636;9.798;2022-08-19T04:34:19;23.93;;;17.90;;
2760;SDS011;15420;48.636;9.798;2022-08-19T04:36:52;24.20;;;17.90;;
2760;SDS011;15420;48.636;9.798;2022-08-19T04:39:21;24.47;;;18.77;;
2760;SDS011;15420;48.636;9.798;2022-08-19T04:42:09;24.80;;;18.87;;
2760;SDS011;15420;48.636;9.798;2022-08-19T04:44:54;26.00;;;18.97;;
2760;SDS011;15420;48.636;9.798;2022-08-19T04:47:26;27.17;;;19.20;;
2760;SDS011;15420;48.636;9.798;2022-08-19T04:49:52;25.40;;;18.90;;
2760;SDS011;15420;48.636;9.798;2022-08-19T04:52:18;25.60;;;19.70;;
2760;SDS011;15420;48.636;9.798;2022-08-19T04:54:46;22.90;;;17.83;;
2760;SDS011;15420;48.636;9.798;2022-08-19T04:57:13;25.30;;;19.17;;
2760;SDS011;15420;48.636;9.798;2022-08-19T04:59:42;27.87;;;20.20;;
2760;SDS011;15420;48.636;9.798;2022-08-19T05:02:10;22.97;;;17.90;;
2760;SDS011;15420;48.636;9.798;2022-08-19T05:04:39;24.80;;;19.30;;
2760;SDS011;15420;48.636;9.798;2022-08-19T05:07:06;26.40;;;19.73;;
2760;SDS011;15420;48.636;9.798;2022-08-19T05:09:32;26.37;;;19.37;;
2760;SDS011;15420;48.636;9.798;2022-08-19T05:12:02;27.27;;;19.83;;
2760;SDS011;15420;48.636;9.798;2022-08-19T05:14:31;26.53;;;19.67;;
2760;SDS011;15420;48.636;9.798;2022-08-19T05:17:01;24.03;;;18.67;;
2760;SDS011;15420;48.636;9.798;2022-08-19T05:19:27;25.33;;;18.70;;
2760;SDS011;15420;48.636;9.798;2022-08-19T05:22:12;28.83;;;19.77;;
2760;SDS011;15420;48.636;9.798;2022-08-19T05:24:57;25.40;;;19.50;;
2760;SDS011;15420;48.636;9.798;2022-08-19T05:27:28;26.70;;;19.77;;
2760;SDS011;15420;48.636;9.798;2022-08-19T05:29:54;27.53;;;19.47;;
2760;SDS011;15420;48.636;9.798;2022-08-19T05:32:20;26.80;;;18.83;;
2760;SDS011;15420;48.636;9.798;2022-08-19T05:34:48;28.80;;;20.20;;
2760;SDS011;15420;48.636;9.798;2022-08-19T05:37:15;27.07;;;19.67;;
2760;SDS011;15420;48.636;9.798;2022-08-19T05:39:44;25.63;;;18.97;;
2760;SDS011;15420;48.636;9.798;2022-08-19T05:42:11;28.73;;;19.80;;
2760;SDS011;15420;48.636;9.798;2022-08-19T05:44:41;31.93;;;19.73;;
2760;SDS011;15420;48.636;9.798;2022-08-19T05:47:12;27.30;;;18.80;;
2760;SDS011;15420;48.636;9.798;2022-08-19T05:49:39;23.30;;;17.50;;
2760;SDS011;15420;48.636;9.798;2022-08-19T05:52:08;24.37;;;18.30;;
2760;SDS011;15420;48.636;9.798;2022-08-19T05:54:37;25.33;;;18.50;;
2760;SDS011;15420;48.636;9.798;2022-08-19T05:57:06;26.47;;;19.50;;
2760;SDS011;15420;48.636;9.798;2022-08-19T05:59:35;25.53;;;18.63;;
2760;SDS011;15420;48.636;9.798;2022-08-19T06:02:06;27.77;;;19.67;;
2760;SDS011;15420;48.636;9.798;2022-08-19T06:04:32;25.17;;;19.53;;
2760;SDS011;15420;48.636;9.798;2022-08-19T06:06:59;26.80;;;19.10;;
2760;SDS011;15420;48.636;9.798;2022-08-19T06:09:26;25.93;;;19.60;;
2760;SDS011;15420;48.636;9.798;2022-08-19T06:11:54;29.57;;;19.40;;
2760;SDS011;15420;48.636;9.798;2022-08-19T06:14:27;24.73;;;18.17;;
2760;SDS011;15420;48.636;9.798;2022-08-19T06:16:59;23.23;;;17.50;;
2760;SDS011;15420;48.636;9.798;2022-08-19T06:19:27;25.00;;;17.30;;
2760;SDS011;15420;48.636;9.798;2022-08-19T06:21:59;24.90;;;18.93;;
2760;SDS011;15420;48.636;9.798;2022-08-19T06:24:26;24.43;;;17.57;;
2760;SDS011;15420;48.636;9.798;2022-08-19T06:26:57;24.33;;;18.47;;
2760;SDS011;15420;48.636;9.798;2022-08-19T06:29:26;28.00;;;19.47;;
2760;SDS011;15420;48.636;9.798;2022-08-19T06:31:55;28.90;;;20.27;;
2760;SDS011;15420;48.636;9.798;2022-08-19T06:34:24;26.40;;;19.30;;
2760;SDS011;15420;48.636;9.798;2022-08-19T06:36:55;27.30;;;19.40;;
2760;SDS011;15420;48.636;9.798;2022-08-19T06:39:27;26.80;;;18.60;;
2760;SDS011;15420;48.636;9.798;2022-08-19T06:42:00;30.43;;;20.03;;
2760;SDS011;15420;48.636;9.798;2022-08-19T06:44:32;28.60;;;20.90;;
2760;SDS011;15420;48.636;9.798;2022-08-19T06:47:03;29.30;;;20.10;;
2760;SDS011;15420;48.636;9.798;2022-08-19T06:49:34;29.10;;;19.73;;
2760;SDS011;15420;48.636;9.798;2022-08-19T06:52:01;27.57;;;20.23;;
2760;SDS011;15420;48.636;9.798;2022-08-19T06:54:28;29.63;;;20.40;;
2760;SDS011;15420;48.636;9.798;2022-08-19T06:57:00;29.07;;;20.00;;
2760;SDS011;15420;48.636;9.798;2022-08-19T06:59:27;30.37;;;20.77;;
2760;SDS011;15420;48.636;9.798;2022-08-19T07:02:00;27.07;;;20.40;;
2760;SDS011;15420;48.636;9.798;2022-08-19T07:04:30;30.23;;;20.00;;
2760;SDS011;15420;48.636;9.798;2022-08-19T07:07:03;34.93;;;21.47;;
2760;SDS011;15420;48.636;9.798;2022-08-19T07:09:37;33.67;;;22.40;;
2760;SDS011;15420;48.636;9.798;2022-08-19T07:12:07;29.53;;;20.10;;
2760;SDS011;15420;48.636;9.798;2022-08-19T07:14:38;29.80;;;21.00;;
2760;SDS011;15420;48.636;9.798;2022-08-19T07:17:08;33.90;;;22.43;;
2760;SDS011;15420;48.636;9.798;2022-08-19T07:19:39;32.20;;;21.83;;
2760;SDS011;15420;48.636;9.798;2022-08-19T07:22:07;30.70;;;19.93;;
2760;SDS011;15420;48.636;9.798;2022-08-19T07:24:39;30.37;;;21.33;;
2760;SDS011;15420;48.636;9.798;2022-08-19T07:27:10;32.93;;;22.80;;
2760;SDS011;15420;48.636;9.798;2022-08-19T07:29:38;35.50;;;22.87;;
2760;SDS011;15420;48.636;9.798;2022-08-19T07:32:05;31.13;;;21.20;;
2760;SDS011;15420;48.636;9.798;2022-08-19T07:34:34;33.47;;;21.37;;
2760;SDS011;15420;48.636;9.798;2022-08-19T07:37:03;30.20;;;21.83;;
2760;SDS011;15420;48.636;9.798;2022-08-19T07:39:31;32.97;;;23.03;;
2760;SDS011;15420;48.636;9.798;2022-08-19T07:42:03;29.80;;;22.10;;
2760;SDS011;15420;48.636;9.798;2022-08-19T07:44:32;34.23;;;22.03;;
2760;SDS011;15420;48.636;9.798;2022-08-19T07:47:02;32.27;;;21.60;;
2760;SDS011;15420;48.636;9.798;2022-08-19T07:49:29;33.47;;;23.80;;
2760;SDS011;15420;48.636;9.798;2022-08-19T07:51:59;34.53;;;22.43;;
2760;SDS011;15420;48.636;9.798;2022-08-19T07:54:29;32.83;;;22.37;;
2760;SDS011;15420;48.636;9.798;2022-08-19T07:56:59;29.53;;;21.30;;
2760;SDS011;15420;48.636;9.798;2022-08-19T07:59:26;35.30;;;23.07;;
2760;SDS011;15420;48.636;9.798;2022-08-19T08:01:53;32.47;;;22.17;;
2760;SDS011;15420;48.636;9.798;2022-08-19T08:04:25;34.30;;;22.87;;
2760;SDS011;15420;48.636;9.798;2022-08-19T08:07:09;34.70;;;24.00;;
2760;SDS011;15420;48.636;9.798;2022-08-19T08:10:06;33.40;;;23.83;;
2760;SDS011;15420;48.636;9.798;2022-08-19T08:12:37;37.30;;;23.77;;
2760;SDS011;15420;48.636;9.798;2022-08-19T08:15:08;32.70;;;24.30;;
2760;SDS011;15420;48.636;9.798;2022-08-19T08:17:43;33.33;;;23.90;;
2760;SDS011;15420;48.636;9.798;2022-08-19T08:20:13;34.13;;;24.60;;
2760;SDS011;15420;48.636;9.798;2022-08-19T08:22:43;38.70;;;24.20;;
2760;SDS011;15420;48.636;9.798;2022-08-19T08:25:29;35.10;;;24.60;;
2760;SDS011;15420;48.636;9.798;2022-08-19T08:27:57;35.10;;;22.90;;
2760;SDS011;15420;48.636;9.798;2022-08-19T08:30:25;31.90;;;23.97;;
2760;SDS011;15420;48.636;9.798;2022-08-19T08:32:52;34.47;;;23.77;;
2760;SDS011;15420;48.636;9.798;2022-08-19T08:35:23;37.10;;;23.90;;
2760;SDS011;15420;48.636;9.798;2022-08-19T08:37:55;32.00;;;22.77;;
2760;SDS011;15420;48.636;9.798;2022-08-19T08:40:23;35.10;;;24.80;;
2760;SDS011;15420;48.636;9.798;2022-08-19T08:45:35;33.43;;;23.80;;
2760;SDS011;15420;48.636;9.798;2022-08-19T08:50:56;33.23;;;23.87;;
2760;SDS011;15420;48.636;9.798;2022-08-19T08:53:24;35.33;;;24.33;;
2760;SDS011;15420;48.636;9.798;2022-08-19T08:55:51;33.10;;;24.20;;
2760;SDS011;15420;48.636;9.798;2022-08-19T08:58:21;35.80;;;23.37;;
2760;SDS011;15420;48.636;9.798;2022-08-19T09:00:56;37.70;;;24.50;;
2760;SDS011;15420;48.636;9.798;2022-08-19T09:03:26;34.90;;;23.57;;
2760;SDS011;15420;48.636;9.798;2022-08-19T09:06:07;35.40;;;25.73;;
2760;SDS011;15420;48.636;9.798;2022-08-19T09:11:19;33.63;;;25.00;;
2760;SDS011;15420;48.636;9.798;2022-08-19T09:16:32;32.23;;;23.67;;
2760;SDS011;15420;48.636;9.798;2022-08-19T09:19:02;33.20;;;22.37;;
2760;SDS011;15420;48.636;9.798;2022-08-19T09:21:30;34.57;;;23.80;;
2760;SDS011;15420;48.636;9.798;2022-08-19T09:23:57;33.33;;;22.13;;
2760;SDS011;15420;48.636;9.798;2022-08-19T09:26:24;33.27;;;23.27;;
2760;SDS011;15420;48.636;9.798;2022-08-19T09:28:51;31.20;;;22.80;;
2760;SDS011;15420;48.636;9.798;2022-08-19T09:31:20;31.57;;;22.90;;
2760;SDS011;15420;48.636;9.798;2022-08-19T09:33:48;30.40;;;22.20;;
2760;SDS011;15420;48.636;9.798;2022-08-19T09:36:22;38.97;;;24.47;;
2760;SDS011;15420;48.636;9.798;2022-08-19T09:38:51;31.40;;;22.20;;
2760;SDS011;15420;48.636;9.798;2022-08-19T09:41:19;36.90;;;24.20;;
2760;SDS011;15420;48.636;9.798;2022-08-19T09:43:47;30.70;;;21.63;;
2760;SDS011;15420;48.636;9.798;2022-08-19T09:46:21;28.73;;;20.97;;
2760;SDS011;15420;48.636;9.798;2022-08-19T09:48:50;31.70;;;22.43;;
2760;SDS011;15420;48.636;9.798;2022-08-19T09:51:21;31.57;;;21.83;;
2760;SDS011;15420;48.636;9.798;2022-08-19T09:53:49;27.30;;;21.23;;
2760;SDS011;15420;48.636;9.798;2022-08-19T09:56:17;28.03;;;21.70;;
2760;SDS011;15420;48.636;9.798;2022-08-19T09:58:49;31.00;;;22.60;;
2760;SDS011;15420;48.636;9.798;2022-08-19T10:01:16;30.30;;;21.50;;
2760;SDS011;15420;48.636;9.798;2022-08-19T10:03:46;25.50;;;19.73;;
2760;SDS011;15420;48.636;9.798;2022-08-19T10:06:15;27.67;;;20.30;;
2760;SDS011;15420;48.636;9.798;2022-08-19T10:08:41;27.83;;;21.43;;
2760;SDS011;15420;48.636;9.798;2022-08-19T10:11:08;27.33;;;20.77;;
2760;SDS011;15420;48.636;9.798;2022-08-19T10:13:34;29.17;;;20.70;;
2760;SDS011;15420;48.636;9.798;2022-08-19T10:16:12;27.37;;;20.77;;
2760;SDS011;15420;48.636;9.798;2022-08-19T10:18:41;25.80;;;18.87;;
2760;SDS011;15420;48.636;9.798;2022-08-19T10:21:12;28.53;;;20.93;;
2760;SDS011;15420;48.636;9.798;2022-08-19T10:23:41;26.23;;;19.90;;
2760;SDS011;15420;48.636;9.798;2022-08-19T10:26:10;25.70;;;18.77;;
2760;SDS011;15420;48.636;9.798;2022-08-19T10:28:38;27.50;;;19.60;;
2760;SDS011;15420;48.636;9.798;2022-08-19T10:31:08;26.50;;;19.93;;
2760;SDS011;15420;48.636;9.798;2022-08-19T10:33:36;25.10;;;19.37;;
2760;SDS011;15420;48.636;9.798;2022-08-19T10:36:05;29.07;;;21.60;;
2760;SDS011;15420;48.636;9.798;2022-08-19T10:38:34;25.13;;;19.00;;
2760;SDS011;15420;48.636;9.798;2022-08-19T10:41:08;25.23;;;18.53;;
2760;SDS011;15420;48.636;9.798;2022-08-19T10:43:44;23.40;;;18.20;;
2760;SDS011;15420;48.636;9.798;2022-08-19T10:46:12;29.70;;;19.97;;
2760;SDS011;15420;48.636;9.798;2022-08-19T10:48:40;26.47;;;19.00;;
2760;SDS011;15420;48.636;9.798;2022-08-19T10:51:07;23.37;;;17.83;;
2760;SDS011;15420;48.636;9.798;2022-08-19T10:53:52;23.33;;;17.13;;
2760;SDS011;15420;48.636;9.798;2022-08-19T10:56:18;27.60;;;19.70;;
2760;SDS011;15420;48.636;9.798;2022-08-19T10:59:03;24.47;;;18.97;;
2760;SDS011;15420;48.636;9.798;2022-08-19T11:01:32;26.20;;;18.90;;
2760;SDS011;15420;48.636;9.798;2022-08-19T11:04:01;25.53;;;18.60;;
2760;SDS011;15420;48.636;9.798;2022-08-19T11:06:34;26.43;;;19.13;;
2760;SDS011;15420;48.636;9.798;2022-08-19T11:09:04;24.23;;;18.90;;
2760;SDS011;15420;48.636;9.798;2022-08-19T11:11:33;26.20;;;20.00;;
2760;SDS011;15420;48.636;9.798;2022-08-19T11:14:06;26.27;;;17.57;;
2760;SDS011;15420;48.636;9.798;2022-08-19T11:16:34;24.50;;;18.80;;
2760;SDS011;15420;48.636;9.798;2022-08-19T11:19:03;27.63;;;21.10;;
2760;SDS011;15420;48.636;9.798;2022-08-19T11:21:34;27.07;;;20.53;;
2760;SDS011;15420;48.636;9.798;2022-08-19T11:24:03;26.17;;;19.37;;
2760;SDS011;15420;48.636;9.798;2022-08-19T11:26:32;27.20;;;20.50;;
2760;SDS011;15420;48.636;9.798;2022-08-19T11:28:59;26.17;;;20.23;;
2760;SDS011;15420;48.636;9.798;2022-08-19T11:31:28;25.73;;;19.13;;
2760;SDS011;15420;48.636;9.798;2022-08-19T11:33:59;32.77;;;20.40;;
2760;SDS011;15420;48.636;9.798;2022-08-19T11:36:28;28.53;;;20.30;;
2760;SDS011;15420;48.636;9.798;2022-08-19T11:39:00;27.70;;;20.10;;
2760;SDS011;15420;48.636;9.798;2022-08-19T11:41:29;31.63;;;21.80;;
2760;SDS011;15420;48.636;9.798;2022-08-19T11:43:57;28.13;;;19.87;;
2760;SDS011;15420;48.636;9.798;2022-08-19T11:46:28;28.00;;;19.90;;
2760;SDS011;15420;48.636;9.798;2022-08-19T11:48:57;29.27;;;21.67;;
2760;SDS011;15420;48.636;9.798;2022-08-19T11:51:25;30.63;;;21.50;;
2760;SDS011;15420;48.636;9.798;2022-08-19T11:53:55;28.50;;;20.37;;
2760;SDS011;15420;48.636;9.798;2022-08-19T11:56:23;25.60;;;18.47;;
2760;SDS011;15420;48.636;9.798;2022-08-19T11:58:55;27.73;;;20.00;;
2760;SDS011;15420;48.636;9.798;2022-08-19T12:01:24;28.10;;;20.57;;
2760;SDS011;15420;48.636;9.798;2022-08-19T12:03:52;30.10;;;21.10;;
2760;SDS011;15420;48.636;9.798;2022-08-19T12:06:24;33.30;;;21.83;;
2760;SDS011;15420;48.636;9.798;2022-08-19T12:08:54;29.80;;;20.87;;
2760;SDS011;15420;48.636;9.798;2022-08-19T12:11:22;27.50;;;20.30;;
2760;SDS011;15420;48.636;9.798;2022-08-19T12:13:51;31.97;;;20.83;;
2760;SDS011;15420;48.636;9.798;2022-08-19T12:16:22;32.90;;;21.50;;
2760;SDS011;15420;48.636;9.798;2022-08-19T12:18:51;30.60;;;21.30;;
2760;SDS011;15420;48.636;9.798;2022-08-19T12:21:24;29.67;;;22.03;;
2760;SDS011;15420;48.636;9.798;2022-08-19T12:23:55;30.27;;;21.43;;
2760;SDS011;15420;48.636;9.798;2022-08-19T12:26:23;30.80;;;21.43;;
2760;SDS011;15420;48.636;9.798;2022-08-19T12:28:53;31.67;;;21.57;;
2760;SDS011;15420;48.636;9.798;2022-08-19T12:31:20;31.57;;;22.30;;
2760;SDS011;15420;48.636;9.798;2022-08-19T12:33:46;29.30;;;21.20;;
2760;SDS011;15420;48.636;9.798;2022-08-19T12:36:13;30.27;;;21.23;;
2760;SDS011;15420;48.636;9.798;2022-08-19T12:38:43;30.47;;;21.90;;
2760;SDS011;15420;48.636;9.798;2022-08-19T12:41:10;31.93;;;22.20;;
2760;SDS011;15420;48.636;9.798;2022-08-19T12:43:38;30.53;;;22.73;;
2760;SDS011;15420;48.636;9.798;2022-08-19T12:46:06;32.67;;;22.00;;
2760;SDS011;15420;48.636;9.798;2022-08-19T12:48:35;29.97;;;21.70;;
2760;SDS011;15420;48.636;9.798;2022-08-19T12:51:06;29.10;;;20.60;;
2760;SDS011;15420;48.636;9.798;2022-08-19T12:53:35;28.77;;;19.47;;
2760;SDS011;15420;48.636;9.798;2022-08-19T12:56:01;32.83;;;23.43;;
2760;SDS011;15420;48.636;9.798;2022-08-19T12:58:27;31.17;;;21.10;;
2760;SDS011;15420;48.636;9.798;2022-08-19T13:00:54;30.40;;;20.90;;
2760;SDS011;15420;48.636;9.798;2022-08-19T13:03:23;31.67;;;22.53;;
2760;SDS011;15420;48.636;9.798;2022-08-19T13:05:54;33.00;;;23.00;;
2760;SDS011;15420;48.636;9.798;2022-08-19T13:08:20;32.83;;;22.03;;
2760;SDS011;15420;48.636;9.798;2022-08-19T13:10:46;29.50;;;20.30;;
2760;SDS011;15420;48.636;9.798;2022-08-19T13:13:13;26.97;;;19.67;;
2760;SDS011;15420;48.636;9.798;2022-08-19T13:15:41;26.00;;;19.27;;
2760;SDS011;15420;48.636;9.798;2022-08-19T13:18:10;28.63;;;19.50;;
2760;SDS011;15420;48.636;9.798;2022-08-19T13:20:38;23.83;;;17.63;;
2760;SDS011;15420;48.636;9.798;2022-08-19T13:23:08;27.90;;;18.33;;
2760;SDS011;15420;48.636;9.798;2022-08-19T13:25:35;24.70;;;17.27;;
2760;SDS011;15420;48.636;9.798;2022-08-19T13:28:03;26.00;;;18.13;;
2760;SDS011;15420;48.636;9.798;2022-08-19T13:30:31;24.27;;;16.90;;
2760;SDS011;15420;48.636;9.798;2022-08-19T13:33:16;22.67;;;16.33;;
2760;SDS011;15420;48.636;9.798;2022-08-19T13:35:49;19.23;;;15.47;;
2760;SDS011;15420;48.636;9.798;2022-08-19T13:38:25;16.50;;;14.40;;
2760;SDS011;15420;48.636;9.798;2022-08-19T13:40:53;18.80;;;15.33;;
2760;SDS011;15420;48.636;9.798;2022-08-19T13:43:21;18.53;;;14.30;;
2760;SDS011;15420;48.636;9.798;2022-08-19T13:45:51;17.50;;;14.17;;
2760;SDS011;15420;48.636;9.798;2022-08-19T13:48:20;17.40;;;13.70;;
2760;SDS011;15420;48.636;9.798;2022-08-19T13:50:50;16.53;;;13.00;;
2760;SDS011;15420;48.636;9.798;2022-08-19T13:53:16;15.50;;;12.57;;
2760;SDS011;15420;48.636;9.798;2022-08-19T13:55:43;18.47;;;13.67;;
2760;SDS011;15420;48.636;9.798;2022-08-19T13:58:12;18.23;;;12.83;;
2760;SDS011;15420;48.636;9.798;2022-08-19T14:00:39;17.50;;;13.43;;
2760;SDS011;15420;48.636;9.798;2022-08-19T14:03:08;15.37;;;12.30;;
2760;SDS011;15420;48.636;9.798;2022-08-19T14:05:35;16.53;;;13.60;;
2760;SDS011;15420;48.636;9.798;2022-08-19T14:08:02;15.63;;;13.03;;
2760;SDS011;15420;48.636;9.798;2022-08-19T14:10:28;22.00;;;13.60;;
2760;SDS011;15420;48.636;9.798;2022-08-19T14:12:58;15.17;;;12.90;;
2760;SDS011;15420;48.636;9.798;2022-08-19T14:15:28;16.00;;;13.40;;
2760;SDS011;15420;48.636;9.798;2022-08-19T14:17:55;17.87;;;12.93;;
2760;SDS011;15420;48.636;9.798;2022-08-19T14:20:26;18.73;;;14.13;;
2760;SDS011;15420;48.636;9.798;2022-08-19T14:22:53;16.93;;;12.77;;
2760;SDS011;15420;48.636;9.798;2022-08-19T14:25:21;14.73;;;12.87;;
2760;SDS011;15420;48.636;9.798;2022-08-19T14:27:51;15.20;;;13.10;;
2760;SDS011;15420;48.636;9.798;2022-08-19T14:30:23;14.33;;;12.33;;
2760;SDS011;15420;48.636;9.798;2022-08-19T14:32:55;13.77;;;11.10;;
2760;SDS011;15420;48.636;9.798;2022-08-19T14:35:28;13.90;;;12.43;;
2760;SDS011;15420;48.636;9.798;2022-08-19T14:37:55;15.27;;;12.20;;
2760;SDS011;15420;48.636;9.798;2022-08-19T14:40:25;14.20;;;11.90;;
2760;SDS011;15420;48.636;9.798;2022-08-19T14:42:58;17.80;;;13.90;;
2760;SDS011;15420;48.636;9.798;2022-08-19T14:45:29;18.03;;;13.47;;
2760;SDS011;15420;48.636;9.798;2022-08-19T14:47:58;18.13;;;14.73;;
2760;SDS011;15420;48.636;9.798;2022-08-19T14:50:25;18.37;;;14.90;;
2760;SDS011;15420;48.636;9.798;2022-08-19T14:52:57;16.63;;;13.80;;
2760;SDS011;15420;48.636;9.798;2022-08-19T14:55:29;21.10;;;14.17;;
2760;SDS011;15420;48.636;9.798;2022-08-19T14:57:56;18.40;;;14.67;;
2760;SDS011;15420;48.636;9.798;2022-08-19T15:00:23;20.70;;;14.77;;
2760;SDS011;15420;48.636;9.798;2022-08-19T15:02:50;17.00;;;13.80;;
2760;SDS011;15420;48.636;9.798;2022-08-19T15:05:19;17.80;;;14.13;;
2760;SDS011;15420;48.636;9.798;2022-08-19T15:07:45;18.97;;;15.90;;